Time;durP1;ratioP1;P1;durP2;ratioP2;P2;SDS_P1;SDS_P2;PMS_P1;PMS_P2;Temp;Humidity;BMP_temperature;BMP_pressure;BME280_temperature;BME280_humidity;BME280_pressure;Samples;Min_cycle;Max_cycle;Signal;HPM_P1;HPM_P2
2022/10/29 00:01:35;;;;;;;;;;;;;;;21.66;46.97;100282.50;4466597;32;34509;-89
2022/10/29 00:04:02;;;;;;;;;;;;;;;21.32;47.56;100293.47;4460246;32;33442;-89
2022/10/29 00:06:29;;;;;;;;;;;;;;;21.19;47.94;100294.56;4437277;32;34884;-90
2022/10/29 00:08:56;;;;;;;;;;;;;;;21.29;47.79;100295.28;4454021;32;34561;-91
2022/10/29 00:11:24;;;;;;;;;;;;;;;21.22;48.00;100297.16;4452093;32;34149;-89
2022/10/29 00:13:52;;;;;;;;;;;;;;;21.29;47.88;100290.00;4461704;32;34027;-89
2022/10/29 00:16:20;;;;;;;;;;;;;;;20.77;49.17;100290.66;4439039;32;33812;-90
2022/10/29 00:18:48;;;;;;;;;;;;;;;21.41;47.58;100289.91;4453146;32;34103;-89
2022/10/29 00:21:16;;;;;;;;;;;;;;;21.59;47.18;100289.66;4464043;32;33254;-88
2022/10/29 00:23:43;;;;;;;;;;;;;;;21.82;46.60;100285.78;4464775;32;33890;-89
2022/10/29 00:26:11;;;;;;;;;;;;;;;21.52;47.36;100287.13;4459375;32;34900;-90
2022/10/29 00:28:38;;;;;;;;;;;;;;;21.25;47.97;100290.94;4454408;32;33770;-90
2022/10/29 00:31:06;;;;;;;;;;;;;;;21.39;47.65;100289.03;4459003;32;33555;-93
2022/10/29 00:33:33;;;;;;;;;;;;;;;21.43;47.63;100293.38;4465470;32;34050;-91
2022/10/29 00:36:02;;;;;;;;;;;;;;;21.07;48.54;100292.06;4456520;32;34454;-89
2022/10/29 00:38:29;;;;;;;;;;;;;;;20.84;48.78;100290.56;4452908;32;34318;-90
2022/10/29 00:40:57;;;;;;;;;;;;;;;20.43;50.11;100304.13;4439236;32;33419;-89
2022/10/29 00:43:24;;;;;;;;;;;;;;;21.14;48.44;100302.53;4452897;32;34126;-90
2022/10/29 00:45:52;;;;;;;;;;;;;;;21.14;48.32;100301.66;4451510;32;33891;-89
2022/10/29 00:48:20;;;;;;;;;;;;;;;21.32;48.00;100290.84;4459193;32;35749;-90
2022/10/29 00:50:47;;;;;;;;;;;;;;;21.45;47.77;100293.38;4454640;32;33597;-90
2022/10/29 00:53:15;;;;;;;;;;;;;;;20.46;50.02;100300.63;4467987;32;35175;-89
2022/10/29 00:55:43;;;;;;;;;;;;;;;20.74;49.36;100290.69;4442102;32;34320;-89
2022/10/29 00:58:10;;;;;;;;;;;;;;;21.13;48.30;100287.56;4447928;32;34705;-90
2022/10/29 01:00:37;;;;;;;;;;;;;;;21.06;48.40;100298.22;4468749;32;33263;-90
2022/10/29 01:03:05;;;;;;;;;;;;;;;20.42;49.85;100278.69;4468594;32;33501;-90
2022/10/29 01:05:32;;;;;;;;;;;;;;;20.48;50.09;100280.38;4457592;32;33873;-90
2022/10/29 01:08:00;;;;;;;;;;;;;;;20.74;49.37;100275.75;4447184;32;35105;-90
2022/10/29 01:10:37;;;;;;;;;;;;;;;19.64;52.06;100279.31;4468307;32;33453;-90
2022/10/29 01:13:13;;;;;;;;;;;;;;;20.38;50.32;100269.03;4454069;32;34106;-90
2022/10/29 01:16:16;;;;;;;;;;;;;;;20.67;49.45;100271.44;4442424;32;34899;-90
2022/10/29 01:18:48;;;;;;;;;;;;;;;20.44;50.14;100260.22;4430729;32;35097;-90
2022/10/29 01:21:16;;;;;;;;;;;;;;;20.06;51.10;100261.44;4436239;32;33217;-90
2022/10/29 01:23:52;;;;;;;;;;;;;;;20.70;49.43;100260.00;4459587;32;34066;-90
2022/10/29 01:26:38;;;;;;;;;;;;;;;20.33;49.78;100261.19;4467369;32;34698;-90
2022/10/29 01:29:09;;;;;;;;;;;;;;;20.56;49.39;100254.84;4453128;32;35199;-90
2022/10/29 01:31:38;;;;;;;;;;;;;;;20.61;49.30;100248.66;4438747;32;33403;-90
2022/10/29 01:34:10;;;;;;;;;;;;;;;21.14;47.91;100248.91;4438145;32;34145;-90
2022/10/29 01:36:43;;;;;;;;;;;;;;;20.42;49.42;100252.34;4439027;32;35450;-91
2022/10/29 01:39:25;;;;;;;;;;;;;;;20.39;49.56;100257.66;4453690;32;33483;-91
2022/10/29 01:41:56;;;;;;;;;;;;;;;20.49;49.35;100238.22;4468337;32;33457;-91
2022/10/29 01:44:34;;;;;;;;;;;;;;;20.29;49.87;100232.28;4445422;32;33641;-90
2022/10/29 01:47:02;;;;;;;;;;;;;;;20.80;48.58;100235.28;4439659;32;33984;-90
2022/10/29 01:49:39;;;;;;;;;;;;;;;20.56;48.94;100225.88;4453892;32;35185;-91
2022/10/29 01:52:07;;;;;;;;;;;;;;;19.65;51.40;100228.44;4453692;32;33440;-91
2022/10/29 01:54:38;;;;;;;;;;;;;;;19.20;52.73;100240.94;4453194;32;34951;-91
2022/10/29 01:57:22;;;;;;;;;;;;;;;19.67;51.69;100238.06;4466285;32;34416;-91
2022/10/29 01:59:49;;;;;;;;;;;;;;;20.11;50.42;100223.66;4438552;32;34309;-91
2022/10/29 02:02:41;;;;;;;;;;;;;;;18.70;54.14;100226.25;4439036;32;33553;-90
2022/10/29 02:05:20;;;;;;;;;;;;;;;20.26;50.17;100224.41;4466028;32;34879;-91
2022/10/29 02:08:07;;;;;;;;;;;;;;;20.12;50.14;100220.16;4447887;32;33998;-91
2022/10/29 02:10:37;;;;;;;;;;;;;;;20.09;50.23;100225.44;4449082;32;35053;-90
2022/10/29 02:13:04;;;;;;;;;;;;;;;20.14;50.32;100226.25;4453635;32;33157;-89
2022/10/29 02:15:35;;;;;;;;;;;;;;;20.29;49.95;100227.88;4442290;32;34701;-91
2022/10/29 02:18:03;;;;;;;;;;;;;;;19.78;51.16;100226.59;4454055;32;34370;-91
2022/10/29 02:20:30;;;;;;;;;;;;;;;20.14;50.22;100217.50;4453565;32;34336;-91
2022/10/29 02:22:57;;;;;;;;;;;;;;;19.87;50.78;100219.50;4467471;32;33446;-91
2022/10/29 02:25:25;;;;;;;;;;;;;;;20.14;50.01;100225.41;4454861;32;34997;-91
2022/10/29 02:27:52;;;;;;;;;;;;;;;20.39;49.57;100221.62;4467628;32;34972;-91
2022/10/29 02:30:20;;;;;;;;;;;;;;;20.64;49.10;100224.03;4467680;32;33905;-91
2022/10/29 02:32:47;;;;;;;;;;;;;;;20.36;49.98;100221.66;4467869;32;34477;-90
2022/10/29 02:35:14;;;;;;;;;;;;;;;20.25;50.13;100226.16;4454507;32;33703;-91
2022/10/29 02:37:42;;;;;;;;;;;;;;;20.55;49.44;100232.91;4466365;32;34231;-90
2022/10/29 02:40:09;;;;;;;;;;;;;;;20.86;48.76;100233.44;4453411;32;35077;-90
2022/10/29 02:42:36;;;;;;;;;;;;;;;21.11;47.94;100233.13;4467263;32;33717;-90
2022/10/29 02:45:04;;;;;;;;;;;;;;;21.18;47.83;100221.59;4455786;32;34166;-91
2022/10/29 02:47:31;;;;;;;;;;;;;;;21.12;48.02;100216.41;4466064;32;34739;-90
2022/10/29 02:49:58;;;;;;;;;;;;;;;20.94;48.30;100222.78;4453392;32;34244;-91
2022/10/29 02:52:26;;;;;;;;;;;;;;;21.19;47.48;100218.06;4467462;32;33798;-90
2022/10/29 02:54:53;;;;;;;;;;;;;;;20.92;48.17;100216.69;4455721;32;33712;-90
2022/10/29 02:57:20;;;;;;;;;;;;;;;19.32;51.80;100217.25;4464337;32;34366;-89
2022/10/29 02:59:47;;;;;;;;;;;;;;;20.37;49.40;100207.59;4467709;32;34100;-91
2022/10/29 03:02:15;;;;;;;;;;;;;;;20.53;48.87;100212.72;4467626;32;34460;-91
2022/10/29 03:04:43;;;;;;;;;;;;;;;20.43;49.21;100214.59;4457242;32;34134;-89
2022/10/29 03:07:10;;;;;;;;;;;;;;;20.16;49.93;100205.22;4448954;32;34125;-90
2022/10/29 03:09:38;;;;;;;;;;;;;;;20.38;49.35;100212.00;4453621;32;33893;-90
2022/10/29 03:12:05;;;;;;;;;;;;;;;20.46;49.35;100213.69;4467396;32;33175;-91
2022/10/29 03:14:32;;;;;;;;;;;;;;;20.54;48.97;100211.88;4440127;32;33830;-90
2022/10/29 03:17:00;;;;;;;;;;;;;;;20.68;48.72;100211.69;4452426;32;34429;-90
2022/10/29 03:19:27;;;;;;;;;;;;;;;20.70;48.69;100217.81;4452796;32;34846;-90
2022/10/29 03:21:54;;;;;;;;;;;;;;;20.96;48.17;100221.00;4427561;32;32276;-91
2022/10/29 03:24:21;;;;;;;;;;;;;;;20.52;48.54;100214.50;4445285;32;32862;-91
2022/10/29 03:26:48;;;;;;;;;;;;;;;19.41;51.82;100209.28;4460216;32;34391;-91
2022/10/29 03:29:16;;;;;;;;;;;;;;;19.40;51.67;100206.69;4437781;32;35246;-90
2022/10/29 03:31:43;;;;;;;;;;;;;;;20.28;49.20;100215.59;4434632;32;32207;-91
2022/10/29 03:34:10;;;;;;;;;;;;;;;20.61;48.49;100203.88;4452873;32;34175;-91
2022/10/29 03:36:37;;;;;;;;;;;;;;;20.76;48.19;100200.19;4420031;32;34572;-89
2022/10/29 03:39:05;;;;;;;;;;;;;;;20.74;48.19;100209.87;4437354;32;33571;-91
2022/10/29 03:41:32;;;;;;;;;;;;;;;20.47;48.81;100205.75;4444964;32;33268;-90
2022/10/29 03:43:59;;;;;;;;;;;;;;;19.54;51.07;100203.94;4467336;32;33908;-90
2022/10/29 03:46:27;;;;;;;;;;;;;;;19.15;51.90;100198.91;4450770;32;33723;-90
2022/10/29 03:48:54;;;;;;;;;;;;;;;20.05;49.84;100212.34;4438910;32;32888;-91
2022/10/29 03:51:21;;;;;;;;;;;;;;;19.13;52.17;100220.81;4445779;32;33528;-90
2022/10/29 03:53:48;;;;;;;;;;;;;;;19.40;51.43;100209.31;4456507;32;33810;-90
2022/10/29 03:56:15;;;;;;;;;;;;;;;19.78;50.27;100208.19;4435143;32;34323;-91
2022/10/29 03:58:42;;;;;;;;;;;;;;;18.92;52.59;100203.44;4411858;32;34193;-91
2022/10/29 04:01:10;;;;;;;;;;;;;;;18.99;52.60;100210.41;4419850;32;33524;-90
2022/10/29 04:03:40;;;;;;;;;;;;;;;19.82;50.46;100204.62;4444962;32;33469;-91
2022/10/29 04:06:08;;;;;;;;;;;;;;;19.30;51.70;100204.97;4449039;32;34290;-90
2022/10/29 04:08:35;;;;;;;;;;;;;;;19.93;50.22;100206.28;4439184;32;35111;-90
2022/10/29 04:11:03;;;;;;;;;;;;;;;20.00;49.86;100206.22;4439861;32;34377;-91
2022/10/29 04:13:30;;;;;;;;;;;;;;;19.92;50.05;100203.66;4427082;32;33601;-91
2022/10/29 04:15:57;;;;;;;;;;;;;;;19.75;50.35;100209.06;4443575;32;35062;-90
2022/10/29 04:18:25;;;;;;;;;;;;;;;19.95;49.90;100208.03;4434852;32;34701;-91
2022/10/29 04:20:52;;;;;;;;;;;;;;;19.97;49.80;100209.78;4448535;32;33692;-91
2022/10/29 04:23:40;;;;;;;;;;;;;;;20.33;49.12;100205.88;4441976;32;34268;-90
2022/10/29 04:26:27;;;;;;;;;;;;;;;20.41;48.89;100213.72;4440511;32;33126;-90
2022/10/29 04:29:14;;;;;;;;;;;;;;;20.54;48.55;100211.88;4437277;32;34736;-92
2022/10/29 04:31:41;;;;;;;;;;;;;;;20.67;47.96;100213.47;4444451;32;32349;-91
2022/10/29 04:34:09;;;;;;;;;;;;;;;20.68;47.89;100209.91;4435784;32;34275;-92
2022/10/29 04:36:36;;;;;;;;;;;;;;;20.61;48.24;100205.66;4449910;32;34149;-91
2022/10/29 04:39:03;;;;;;;;;;;;;;;20.52;48.49;100213.63;4411251;32;33443;-92
2022/10/29 04:41:30;;;;;;;;;;;;;;;20.62;48.14;100210.88;4423711;32;34302;-91
2022/10/29 04:43:58;;;;;;;;;;;;;;;20.80;48.04;100215.06;4439296;32;33600;-91
2022/10/29 04:46:25;;;;;;;;;;;;;;;20.78;48.06;100214.19;4437882;32;32842;-92
2022/10/29 04:48:52;;;;;;;;;;;;;;;20.61;48.49;100208.28;4441647;32;34970;-89
2022/10/29 04:51:20;;;;;;;;;;;;;;;20.58;48.32;100208.31;4440454;32;32160;-90
2022/10/29 04:53:48;;;;;;;;;;;;;;;19.90;50.08;100201.06;4444313;32;34245;-90
2022/10/29 04:56:15;;;;;;;;;;;;;;;20.23;49.08;100206.00;4438483;32;34252;-92
2022/10/29 04:58:43;;;;;;;;;;;;;;;20.36;48.69;100203.22;4445127;32;33007;-91
2022/10/29 05:01:10;;;;;;;;;;;;;;;20.56;48.30;100216.22;4425867;32;34283;-88
2022/10/29 05:03:37;;;;;;;;;;;;;;;20.54;48.28;100219.78;4441505;32;33876;-93
2022/10/29 05:06:05;;;;;;;;;;;;;;;20.29;48.83;100216.47;4449115;32;34456;-90
2022/10/29 05:08:33;;;;;;;;;;;;;;;20.71;48.10;100215.16;4439860;32;32639;-91
2022/10/29 05:11:02;;;;;;;;;;;;;;;19.71;50.11;100215.25;4431676;32;34302;-90
2022/10/29 05:13:30;;;;;;;;;;;;;;;19.92;49.34;100212.41;4446013;32;33170;-89
2022/10/29 05:15:57;;;;;;;;;;;;;;;20.08;49.13;100212.31;4435626;32;34364;-91
2022/10/29 05:18:24;;;;;;;;;;;;;;;20.47;48.36;100218.94;4429842;32;34063;-90
2022/10/29 05:20:55;;;;;;;;;;;;;;;20.31;48.74;100212.94;4436010;32;32807;-92
2022/10/29 05:23:22;;;;;;;;;;;;;;;20.30;48.51;100198.00;4439980;32;32573;-89
2022/10/29 05:25:50;;;;;;;;;;;;;;;20.53;47.42;100205.72;4439824;32;34838;-89
2022/10/29 05:28:19;;;;;;;;;;;;;;;20.46;47.61;100201.38;4431346;32;33275;-89
2022/10/29 05:30:47;;;;;;;;;;;;;;;20.74;47.14;100212.50;4412176;32;34622;-90
2022/10/29 05:33:15;;;;;;;;;;;;;;;20.68;47.38;100212.56;4441173;32;33619;-90
2022/10/29 05:35:43;;;;;;;;;;;;;;;20.64;47.47;100205.59;4436660;32;34429;-90
2022/10/29 05:38:10;;;;;;;;;;;;;;;21.08;46.57;100210.31;4438696;32;33973;-92
2022/10/29 05:40:38;;;;;;;;;;;;;;;19.92;48.90;100209.78;4445330;32;34464;-89
2022/10/29 05:43:05;;;;;;;;;;;;;;;20.58;47.19;100211.81;4446214;32;33565;-90
2022/10/29 05:45:32;;;;;;;;;;;;;;;20.75;46.97;100213.37;4435520;32;33368;-90
2022/10/29 05:48:00;;;;;;;;;;;;;;;20.73;46.99;100217.81;4435748;32;35442;-90
2022/10/29 05:50:28;;;;;;;;;;;;;;;20.87;46.77;100219.38;4437414;32;33024;-90
2022/10/29 05:52:59;;;;;;;;;;;;;;;20.12;48.05;100219.28;4438470;32;35036;-90
2022/10/29 05:55:27;;;;;;;;;;;;;;;20.74;46.78;100212.50;4425656;32;34766;-90
2022/10/29 05:57:58;;;;;;;;;;;;;;;19.77;49.06;100206.41;4430887;32;33573;-90
2022/10/29 06:00:26;;;;;;;;;;;;;;;20.16;47.88;100199.94;4438770;32;33493;-90
2022/10/29 06:02:53;;;;;;;;;;;;;;;19.72;49.06;100208.22;4460955;32;34260;-90
2022/10/29 06:05:21;;;;;;;;;;;;;;;20.16;48.22;100205.22;4440421;32;33749;-90
2022/10/29 06:07:52;;;;;;;;;;;;;;;20.42;47.62;100195.28;4467732;32;34522;-90
2022/10/29 06:10:20;;;;;;;;;;;;;;;20.60;46.75;100201.25;4422702;32;32708;-93
2022/10/29 06:12:48;;;;;;;;;;;;;;;19.39;49.77;100195.25;4434363;32;32669;-89
2022/10/29 06:15:15;;;;;;;;;;;;;;;18.61;51.75;100198.28;4438165;32;35373;-89
2022/10/29 06:17:43;;;;;;;;;;;;;;;19.15;50.45;100200.69;4454826;32;35102;-91
2022/10/29 06:20:10;;;;;;;;;;;;;;;19.75;49.20;100211.69;4444288;32;34520;-90
2022/10/29 06:22:38;;;;;;;;;;;;;;;19.57;49.03;100217.94;4452849;32;34075;-91
2022/10/29 06:25:05;;;;;;;;;;;;;;;18.97;50.50;100214.78;4454259;32;33870;-89
2022/10/29 06:27:32;;;;;;;;;;;;;;;19.19;49.85;100211.16;4464121;32;34230;-90
2022/10/29 06:30:00;;;;;;;;;;;;;;;19.20;50.10;100219.91;4455964;32;34238;-89
2022/10/29 06:32:27;;;;;;;;;;;;;;;19.74;48.79;100228.38;4468150;32;34163;-89
2022/10/29 06:34:54;;;;;;;;;;;;;;;19.60;49.19;100230.19;4475322;32;34177;-89
2022/10/29 06:37:21;;;;;;;;;;;;;;;19.79;48.90;100215.19;4452054;32;34414;-89
2022/10/29 06:39:49;;;;;;;;;;;;;;;19.87;48.63;100227.37;4464411;32;34575;-88
2022/10/29 06:42:16;;;;;;;;;;;;;;;19.74;49.16;100223.13;4467579;32;34011;-87
2022/10/29 06:44:43;;;;;;;;;;;;;;;20.07;48.17;100226.34;4467379;32;33654;-87
2022/10/29 06:47:10;;;;;;;;;;;;;;;19.34;50.17;100225.09;4461302;32;34442;-87
2022/10/29 06:49:38;;;;;;;;;;;;;;;19.66;49.51;100235.44;4457783;32;33616;-87
2022/10/29 06:52:05;;;;;;;;;;;;;;;20.04;48.07;100237.78;4458226;32;34182;-88
2022/10/29 06:54:32;;;;;;;;;;;;;;;19.98;48.62;100236.97;4452024;32;34166;-88
2022/10/29 06:56:59;;;;;;;;;;;;;;;19.88;48.79;100231.75;4441308;32;34111;-88
2022/10/29 06:59:26;;;;;;;;;;;;;;;19.31;50.40;100220.72;4453647;32;33408;-87
2022/10/29 07:01:54;;;;;;;;;;;;;;;17.77;54.47;100213.25;4451941;32;34143;-87
2022/10/29 07:04:21;;;;;;;;;;;;;;;18.83;51.85;100199.09;4458197;32;34286;-90
2022/10/29 07:06:48;;;;;;;;;;;;;;;18.24;53.74;100214.09;4465735;32;35049;-91
2022/10/29 07:09:16;;;;;;;;;;;;;;;19.04;51.78;100224.38;4475482;32;34261;-89
2022/10/29 07:11:43;;;;;;;;;;;;;;;18.91;51.90;100220.09;4454218;32;34041;-88
2022/10/29 07:14:10;;;;;;;;;;;;;;;18.62;52.54;100222.78;4454207;32;34778;-90
2022/10/29 07:16:37;;;;;;;;;;;;;;;18.84;52.05;100229.75;4466821;32;34198;-90
2022/10/29 07:19:04;;;;;;;;;;;;;;;19.35;50.75;100230.34;4445437;32;32089;-90
2022/10/29 07:21:33;;;;;;;;;;;;;;;19.39;50.73;100239.97;4456265;32;34910;-89
2022/10/29 07:24:01;;;;;;;;;;;;;;;18.94;52.08;100241.06;4459830;32;34504;-90
2022/10/29 07:26:28;;;;;;;;;;;;;;;19.59;50.56;100231.09;4466410;32;34475;-87
2022/10/29 07:28:58;;;;;;;;;;;;;;;19.77;50.07;100238.84;4466891;32;33491;-90
2022/10/29 07:31:25;;;;;;;;;;;;;;;19.02;51.72;100235.81;4459573;32;34038;-90
2022/10/29 07:33:52;;;;;;;;;;;;;;;19.65;50.38;100239.81;4473661;32;34440;-88
2022/10/29 07:36:20;;;;;;;;;;;;;;;18.77;52.49;100248.16;4469618;32;34087;-90
2022/10/29 07:38:47;;;;;;;;;;;;;;;19.24;51.17;100254.94;4467193;32;33627;-90
2022/10/29 07:41:14;;;;;;;;;;;;;;;19.67;50.11;100258.25;4460485;32;34154;-89
2022/10/29 07:43:41;;;;;;;;;;;;;;;19.84;49.77;100247.59;4466743;32;34383;-90
2022/10/29 07:46:09;;;;;;;;;;;;;;;19.65;50.21;100233.69;4461511;32;34466;-90
2022/10/29 07:48:36;;;;;;;;;;;;;;;18.55;53.05;100228.91;4462362;32;33688;-90
2022/10/29 07:51:03;;;;;;;;;;;;;;;18.71;53.12;100230.66;4462312;32;34138;-90
2022/10/29 07:53:31;;;;;;;;;;;;;;;19.17;51.53;100241.00;4467026;32;35210;-90
2022/10/29 07:55:58;;;;;;;;;;;;;;;19.30;50.94;100237.41;4462289;32;34356;-88
2022/10/29 07:58:25;;;;;;;;;;;;;;;19.28;51.26;100236.56;4460566;32;33212;-88
2022/10/29 08:00:53;;;;;;;;;;;;;;;18.92;52.70;100234.97;4466847;32;34154;-89
2022/10/29 08:03:20;;;;;;;;;;;;;;;18.41;54.08;100229.84;4466890;32;34428;-89
2022/10/29 08:05:48;;;;;;;;;;;;;;;18.01;55.20;100229.00;4474496;32;34571;-89
2022/10/29 08:08:23;;;;;;;;;;;;;;;18.69;53.58;100235.00;4466979;32;33627;-90
2022/10/29 08:10:50;;;;;;;;;;;;;;;19.24;52.50;100253.19;4467131;32;34893;-88
2022/10/29 08:13:17;;;;;;;;;;;;;;;19.69;51.40;100251.19;4457027;32;35180;-88
2022/10/29 08:15:45;;;;;;;;;;;;;;;19.47;51.64;100234.66;4465022;32;34412;-87
2022/10/29 08:18:15;;;;;;;;;;;;;;;19.14;52.21;100230.50;4467375;32;33290;-90
2022/10/29 08:20:43;;;;;;;;;;;;;;;18.61;53.62;100234.16;4459177;32;34243;-88
2022/10/29 08:23:11;;;;;;;;;;;;;;;18.65;53.73;100246.41;4466393;32;35094;-90
2022/10/29 08:25:41;;;;;;;;;;;;;;;18.19;55.53;100241.25;4462305;32;34189;-89
2022/10/29 08:28:09;;;;;;;;;;;;;;;19.28;52.13;100236.56;4454378;32;34446;-91
2022/10/29 08:30:36;;;;;;;;;;;;;;;18.20;55.41;100233.37;4451064;32;34968;-92
2022/10/29 08:33:04;;;;;;;;;;;;;;;18.50;54.30;100223.69;4451039;32;35304;-92
2022/10/29 08:35:31;;;;;;;;;;;;;;;19.27;52.40;100232.16;4460874;32;35250;-90
2022/10/29 08:37:59;;;;;;;;;;;;;;;18.50;54.55;100244.69;4443771;32;33314;-88
2022/10/29 08:40:41;;;;;;;;;;;;;;;18.86;53.64;100251.59;4452680;32;34266;-91
2022/10/29 08:43:31;;;;;;;;;;;;;;;19.12;52.91;100250.63;4453012;32;33743;-91
2022/10/29 08:45:58;;;;;;;;;;;;;;;19.62;51.61;100260.03;4440486;32;34821;-90
2022/10/29 08:48:39;;;;;;;;;;;;;;;19.75;51.46;100255.56;4467434;32;33502;-89
2022/10/29 08:51:09;;;;;;;;;;;;;;;20.09;50.58;100238.59;4454179;32;33776;-90
2022/10/29 08:53:41;;;;;;;;;;;;;;;19.38;52.15;100235.59;4454375;32;35646;-92
2022/10/29 08:56:10;;;;;;;;;;;;;;;19.61;51.48;100237.19;4453479;32;34613;-90
2022/10/29 08:58:46;;;;;;;;;;;;;;;19.78;51.21;100232.75;4438955;32;34548;-91
2022/10/29 09:01:13;;;;;;;;;;;;;;;20.03;50.46;100222.00;4461156;32;34192;-91
2022/10/29 09:03:41;;;;;;;;;;;;;;;19.32;52.11;100214.63;4480584;32;35187;-89
2022/10/29 09:06:09;;;;;;;;;;;;;;;18.40;54.41;100224.59;4448440;32;35042;-90
2022/10/29 09:08:37;;;;;;;;;;;;;;;19.40;51.50;100211.94;4440270;32;33334;-90
2022/10/29 09:11:16;;;;;;;;;;;;;;;17.62;56.35;100233.34;4452687;32;33662;-90
2022/10/29 09:14:01;;;;;;;;;;;;;;;19.13;52.31;100219.09;4452902;32;35436;-90
2022/10/29 09:16:43;;;;;;;;;;;;;;;18.00;55.48;100229.91;4466960;32;33515;-90
2022/10/29 09:19:23;;;;;;;;;;;;;;;18.77;53.34;100237.66;4454119;32;34349;-89
2022/10/29 09:22:12;;;;;;;;;;;;;;;18.55;53.79;100228.91;4454130;32;34014;-89
2022/10/29 09:25:03;;;;;;;;;;;;;;;18.61;54.03;100228.91;4449287;32;34243;-89
2022/10/29 09:27:49;;;;;;;;;;;;;;;18.70;53.51;100223.63;4448496;32;34254;-90
2022/10/29 09:30:17;;;;;;;;;;;;;;;18.89;53.33;100217.44;4454359;32;33565;-89
2022/10/29 09:33:06;;;;;;;;;;;;;;;19.31;52.25;100227.75;4469761;32;34134;-89
2022/10/29 09:35:43;;;;;;;;;;;;;;;18.65;52.96;100231.53;4459278;32;34191;-89
2022/10/29 09:38:13;;;;;;;;;;;;;;;16.91;58.07;100228.78;4454039;32;35041;-89
2022/10/29 09:40:41;;;;;;;;;;;;;;;18.81;53.12;100227.13;4453953;32;33600;-90
2022/10/29 09:43:34;;;;;;;;;;;;;;;17.13;57.82;100243.72;4454269;32;34700;-88
2022/10/29 09:46:07;;;;;;;;;;;;;;;18.36;54.73;100236.84;4443189;32;33944;-88
2022/10/29 09:48:37;;;;;;;;;;;;;;;18.30;54.64;100239.50;4438132;32;35869;-88
2022/10/29 09:51:05;;;;;;;;;;;;;;;18.86;52.83;100224.47;4467268;32;32893;-88
2022/10/29 09:53:32;;;;;;;;;;;;;;;18.89;52.71;100220.06;4465231;32;33465;-89
2022/10/29 09:55:59;;;;;;;;;;;;;;;18.65;53.35;100207.88;4452385;32;35350;-89
2022/10/29 09:58:27;;;;;;;;;;;;;;;18.10;55.24;100196.63;4453017;32;34024;-89
2022/10/29 10:00:55;;;;;;;;;;;;;;;18.12;55.71;100197.53;4479388;32;33036;-90
2022/10/29 10:03:23;;;;;;;;;;;;;;;18.22;55.67;100200.13;4479427;32;34230;-90
2022/10/29 10:06:07;;;;;;;;;;;;;;;18.93;53.68;100206.03;4457622;32;33424;-90
2022/10/29 10:08:34;;;;;;;;;;;;;;;18.81;53.74;100210.47;4451135;32;34556;-90
2022/10/29 10:11:03;;;;;;;;;;;;;;;18.70;53.77;100206.13;4451177;32;34535;-90
2022/10/29 10:13:31;;;;;;;;;;;;;;;19.00;52.19;100208.66;4452940;32;34885;-88
2022/10/29 10:16:00;;;;;;;;;;;;;;;18.89;52.19;100204.31;4455894;32;35319;-89
2022/10/29 10:18:30;;;;;;;;;;;;;;;19.23;51.56;100198.88;4437159;32;35118;-87
2022/10/29 10:21:13;;;;;;;;;;;;;;;19.41;51.09;100204.03;4452622;32;33552;-88
2022/10/29 10:23:45;;;;;;;;;;;;;;;19.67;50.71;100200.38;4437658;32;34681;-88
2022/10/29 10:26:24;;;;;;;;;;;;;;;20.60;47.80;100198.59;4438283;32;34360;-88
2022/10/29 10:29:06;;;;;;;;;;;;;;;19.96;49.45;100192.22;4451651;32;34607;-88
2022/10/29 10:31:33;;;;;;;;;;;;;;;20.34;48.40;100185.69;4451527;32;33587;-91
2022/10/29 10:34:06;;;;;;;;;;;;;;;20.58;47.74;100187.22;4460988;32;35122;-86
2022/10/29 10:36:35;;;;;;;;;;;;;;;20.17;48.81;100180.63;4458676;32;34413;-87
2022/10/29 10:39:02;;;;;;;;;;;;;;;20.45;48.13;100185.56;4452878;32;35316;-90
2022/10/29 10:41:30;;;;;;;;;;;;;;;18.39;53.65;100197.44;4462248;32;33385;-88
2022/10/29 10:43:59;;;;;;;;;;;;;;;19.19;51.43;100192.75;4455985;32;34212;-88
2022/10/29 10:46:29;;;;;;;;;;;;;;;18.89;52.59;100185.91;4453208;32;34165;-87
2022/10/29 10:49:01;;;;;;;;;;;;;;;18.91;52.43;100181.53;4467131;32;34135;-87
2022/10/29 10:51:29;;;;;;;;;;;;;;;19.08;52.30;100183.19;4449476;32;34174;-86
2022/10/29 10:53:57;;;;;;;;;;;;;;;19.25;52.03;100176.09;4464098;32;34230;-87
2022/10/29 10:56:24;;;;;;;;;;;;;;;19.63;50.95;100170.59;4472348;32;33561;-87
2022/10/29 10:58:51;;;;;;;;;;;;;;;19.22;51.84;100172.59;4464221;32;34493;-88
2022/10/29 11:01:21;;;;;;;;;;;;;;;18.95;53.02;100166.63;4467634;32;33650;-89
2022/10/29 11:03:50;;;;;;;;;;;;;;;19.23;52.55;100167.31;4452027;32;33910;-87
2022/10/29 11:06:19;;;;;;;;;;;;;;;19.29;52.59;100172.56;4450169;32;33969;-88
2022/10/29 11:08:50;;;;;;;;;;;;;;;19.87;51.00;100161.59;4436435;32;34439;-87
2022/10/29 11:11:22;;;;;;;;;;;;;;;19.85;51.23;100155.50;4460312;32;33302;-87
2022/10/29 11:13:49;;;;;;;;;;;;;;;20.06;49.67;100158.78;4465838;32;35240;-88
2022/10/29 11:16:20;;;;;;;;;;;;;;;19.84;50.55;100150.22;4459997;32;35870;-86
2022/10/29 11:18:50;;;;;;;;;;;;;;;20.23;49.61;100154.22;4443361;32;33932;-89
2022/10/29 11:21:25;;;;;;;;;;;;;;;20.37;49.18;100149.66;4462042;32;33967;-86
2022/10/29 11:24:04;;;;;;;;;;;;;;;20.49;48.74;100151.31;4468092;32;34743;-86
2022/10/29 11:26:34;;;;;;;;;;;;;;;20.01;50.36;100148.31;4482565;32;35202;-90
2022/10/29 11:29:04;;;;;;;;;;;;;;;19.39;51.55;100157.56;4482202;32;34282;-89
2022/10/29 11:31:39;;;;;;;;;;;;;;;19.36;52.04;100153.22;4463827;32;33573;-86
2022/10/29 11:34:13;;;;;;;;;;;;;;;19.80;50.50;100138.84;4452182;32;34204;-85
2022/10/29 11:36:42;;;;;;;;;;;;;;;19.25;51.91;100139.28;4469905;32;34321;-86
2022/10/29 11:39:12;;;;;;;;;;;;;;;19.30;51.93;100137.50;4473006;32;34964;-86
2022/10/29 11:41:39;;;;;;;;;;;;;;;19.84;51.04;100131.81;4440922;32;33157;-88
2022/10/29 11:44:10;;;;;;;;;;;;;;;20.64;48.79;100131.81;4451709;32;34936;-90
2022/10/29 11:46:37;;;;;;;;;;;;;;;19.93;49.95;100129.09;4452459;32;36090;-90
2022/10/29 11:49:23;;;;;;;;;;;;;;;19.44;51.81;100119.84;4464526;32;34321;-90
2022/10/29 11:51:58;;;;;;;;;;;;;;;19.86;50.69;100119.53;4473201;32;33636;-89
2022/10/29 11:54:44;;;;;;;;;;;;;;;20.02;50.41;100118.47;4459681;32;34122;-87
2022/10/29 11:57:15;;;;;;;;;;;;;;;20.22;50.04;100123.50;4463493;32;34183;-90
2022/10/29 11:59:42;;;;;;;;;;;;;;;20.41;50.09;100116.25;4451208;32;35022;-90
2022/10/29 12:02:23;;;;;;;;;;;;;;;20.57;49.13;100119.59;4465726;32;34421;-89
2022/10/29 12:04:57;;;;;;;;;;;;;;;20.57;49.50;100120.50;4451264;32;33875;-87
2022/10/29 12:07:40;;;;;;;;;;;;;;;21.01;48.25;100118.13;4464456;32;35236;-90
2022/10/29 12:10:11;;;;;;;;;;;;;;;20.78;48.21;100111.41;4466201;32;35372;-89
2022/10/29 12:12:45;;;;;;;;;;;;;;;20.56;48.84;100115.22;4449461;32;33646;-89
2022/10/29 12:15:19;;;;;;;;;;;;;;;20.71;48.62;100111.53;4474301;32;33677;-91
2022/10/29 12:17:55;;;;;;;;;;;;;;;19.66;50.97;100101.25;4468524;32;33855;-89
2022/10/29 12:20:31;;;;;;;;;;;;;;;19.67;50.50;100110.94;4466420;32;35207;-89
2022/10/29 12:23:06;;;;;;;;;;;;;;;20.17;49.52;100114.78;4450254;32;34490;-88
2022/10/29 12:25:49;;;;;;;;;;;;;;;20.30;49.33;100116.38;4466096;32;34894;-91
2022/10/29 12:28:19;;;;;;;;;;;;;;;20.16;49.99;100118.31;4466011;32;34398;-89
2022/10/29 12:30:53;;;;;;;;;;;;;;;20.66;48.67;100108.97;4453837;32;33805;-88
2022/10/29 12:33:25;;;;;;;;;;;;;;;21.13;47.55;100094.22;4452071;32;33319;-89
2022/10/29 12:36:05;;;;;;;;;;;;;;;20.49;48.69;100097.72;4466974;32;34286;-90
2022/10/29 12:38:39;;;;;;;;;;;;;;;20.53;49.09;100091.56;4467876;32;34046;-93
2022/10/29 12:41:08;;;;;;;;;;;;;;;19.77;51.32;100091.50;4454421;32;34237;-88
2022/10/29 12:43:37;;;;;;;;;;;;;;;20.40;49.34;100081.16;4454375;32;34367;-91
2022/10/29 12:46:07;;;;;;;;;;;;;;;20.54;48.92;100075.75;4453977;32;34235;-89
2022/10/29 12:49:05;;;;;;;;;;;;;;;20.36;49.37;100076.81;4456277;32;35216;-92
2022/10/29 12:51:49;;;;;;;;;;;;;;;20.04;50.27;100071.94;4468432;32;34603;-92